<?xml version="1.0" encoding="UTF-8"?>
<gpx xmlns="http://www.topografix.com/GPX/1/1" xmlns:xsi="http://www.w3.org/2001/XMLSchema-instance" version="1.1" xsi:schemaLocation="http://www.topografix.com/GPX/1/1 http://www.topografix.com/GPX/1/1/gpx.xsd">
  <metadata>
    <name>ALOHA TRI Linz</name>
  </metadata>
  <trk>
    <name>ALOHA TRI Linz</name>
    <trkseg>
      <trkpt lat="48.319119" lon="14.328905">
        <ele>252.529784</ele>
        <time>2024-07-07T09:15:00.000Z</time>
      </trkpt>
      <trkpt lat="48.319006" lon="14.329001">
        <ele>252.52978</ele>
        <time>2024-07-07T09:15:01.000Z</time>
      </trkpt>
      <trkpt lat="48.318608" lon="14.329316">
        <ele>252.529797</ele>
        <time>2024-07-07T09:15:06.000Z</time>
      </trkpt>
      <trkpt lat="48.316932" lon="14.330646">
        <ele>253.133118</ele>
        <time>2024-07-07T09:15:27.000Z</time>
      </trkpt>
      <trkpt lat="48.316691" lon="14.330928">
        <ele>253.23508</ele>
        <time>2024-07-07T09:15:30.000Z</time>
      </trkpt>
      <trkpt lat="48.316616" lon="14.331088">
        <ele>253.265412</ele>
        <time>2024-07-07T09:15:31.000Z</time>
      </trkpt>
      <trkpt lat="48.314145" lon="14.333054">
        <ele>253.617287</ele>
        <time>2024-07-07T09:16:02.000Z</time>
      </trkpt>
      <trkpt lat="48.313482" lon="14.333479">
        <ele>253.536319</ele>
        <time>2024-07-07T09:16:10.000Z</time>
      </trkpt>
      <trkpt lat="48.311747" lon="14.334349">
        <ele>252.566048</ele>
        <time>2024-07-07T09:16:30.000Z</time>
      </trkpt>
      <trkpt lat="48.310814" lon="14.33477">
        <ele>252.309378</ele>
        <time>2024-07-07T09:16:41.000Z</time>
      </trkpt>
      <trkpt lat="48.309984" lon="14.335095">
        <ele>252.558685</ele>
        <time>2024-07-07T09:16:51.000Z</time>
      </trkpt>
      <trkpt lat="48.30885" lon="14.335533">
        <ele>255.101739</ele>
        <time>2024-07-07T09:17:04.000Z</time>
      </trkpt>
      <trkpt lat="48.308739" lon="14.335592">
        <ele>255.357354</ele>
        <time>2024-07-07T09:17:05.000Z</time>
      </trkpt>
      <trkpt lat="48.308758" lon="14.335678">
        <ele>255.489469</ele>
        <time>2024-07-07T09:17:06.000Z</time>
      </trkpt>
      <trkpt lat="48.308693" lon="14.335734">
        <ele>255.665721</ele>
        <time>2024-07-07T09:17:07.000Z</time>
      </trkpt>
      <trkpt lat="48.308673" lon="14.335747">
        <ele>255.70598</ele>
        <time>2024-07-07T09:17:07.000Z</time>
      </trkpt>
      <trkpt lat="48.3086" lon="14.335799">
        <ele>255.903645</ele>
        <time>2024-07-07T09:17:08.000Z</time>
      </trkpt>
      <trkpt lat="48.308638" lon="14.336134">
        <ele>256.192434</ele>
        <time>2024-07-07T09:17:11.000Z</time>
      </trkpt>
      <trkpt lat="48.308664" lon="14.336321">
        <ele>256.29594</ele>
        <time>2024-07-07T09:17:12.000Z</time>
      </trkpt>
      <trkpt lat="48.30869" lon="14.336487">
        <ele>256.39439</ele>
        <time>2024-07-07T09:17:13.000Z</time>
      </trkpt>
      <trkpt lat="48.308186" lon="14.336591">
        <ele>256.822625</ele>
        <time>2024-07-07T09:17:19.000Z</time>
      </trkpt>
      <trkpt lat="48.308168" lon="14.336594">
        <ele>256.839073</ele>
        <time>2024-07-07T09:17:19.000Z</time>
      </trkpt>
      <trkpt lat="48.307659" lon="14.336694">
        <ele>257.281134</ele>
        <time>2024-07-07T09:17:25.000Z</time>
      </trkpt>
      <trkpt lat="48.305951" lon="14.337029">
        <ele>254.909281</ele>
        <time>2024-07-07T09:17:44.000Z</time>
      </trkpt>
      <trkpt lat="48.305423" lon="14.337236">
        <ele>254.008242</ele>
        <time>2024-07-07T09:17:50.000Z</time>
      </trkpt>
      <trkpt lat="48.304965" lon="14.337512">
        <ele>253.79744</ele>
        <time>2024-07-07T09:17:55.000Z</time>
      </trkpt>
      <trkpt lat="48.304584" lon="14.33785">
        <ele>253.610121</ele>
        <time>2024-07-07T09:18:00.000Z</time>
      </trkpt>
      <trkpt lat="48.30413" lon="14.338352">
        <ele>253.372175</ele>
        <time>2024-07-07T09:18:06.000Z</time>
      </trkpt>
      <trkpt lat="48.303759" lon="14.338939">
        <ele>253.681469</ele>
        <time>2024-07-07T09:18:12.000Z</time>
      </trkpt>
      <trkpt lat="48.303329" lon="14.339574">
        <ele>254.331566</ele>
        <time>2024-07-07T09:18:19.000Z</time>
      </trkpt>
      <trkpt lat="48.303067" lon="14.339902">
        <ele>254.71517</ele>
        <time>2024-07-07T09:18:23.000Z</time>
      </trkpt>
      <trkpt lat="48.302712" lon="14.340295">
        <ele>255.201025</ele>
        <time>2024-07-07T09:18:28.000Z</time>
      </trkpt>
      <trkpt lat="48.30224" lon="14.340689">
        <ele>255.676594</ele>
        <time>2024-07-07T09:18:34.000Z</time>
      </trkpt>
      <trkpt lat="48.301344" lon="14.341294">
        <ele>256.498156</ele>
        <time>2024-07-07T09:18:45.000Z</time>
      </trkpt>
      <trkpt lat="48.300428" lon="14.341918">
        <ele>256.142953</ele>
        <time>2024-07-07T09:18:56.000Z</time>
      </trkpt>
      <trkpt lat="48.299504" lon="14.342511">
        <ele>255.204317</ele>
        <time>2024-07-07T09:19:07.000Z</time>
      </trkpt>
      <trkpt lat="48.298963" lon="14.342744">
        <ele>255.007419</ele>
        <time>2024-07-07T09:19:13.000Z</time>
      </trkpt>
      <trkpt lat="48.298777" lon="14.342796">
        <ele>254.977952</ele>
        <time>2024-07-07T09:19:15.000Z</time>
      </trkpt>
      <trkpt lat="48.298432" lon="14.342857">
        <ele>254.923417</ele>
        <time>2024-07-07T09:19:19.000Z</time>
      </trkpt>
      <trkpt lat="48.29802" lon="14.342841">
        <ele>254.858034</ele>
        <time>2024-07-07T09:19:24.000Z</time>
      </trkpt>
      <trkpt lat="48.296908" lon="14.342588">
        <ele>254.892141</ele>
        <time>2024-07-07T09:19:37.000Z</time>
      </trkpt>
      <trkpt lat="48.296328" lon="14.34252">
        <ele>254.970732</ele>
        <time>2024-07-07T09:19:43.000Z</time>
      </trkpt>
      <trkpt lat="48.295984" lon="14.342515">
        <ele>255.019716</ele>
        <time>2024-07-07T09:19:47.000Z</time>
      </trkpt>
      <trkpt lat="48.295597" lon="14.342563">
        <ele>254.792234</ele>
        <time>2024-07-07T09:19:51.000Z</time>
      </trkpt>
      <trkpt lat="48.295211" lon="14.342712">
        <ele>254.363555</ele>
        <time>2024-07-07T09:19:55.000Z</time>
      </trkpt>
      <trkpt lat="48.294852" lon="14.342949">
        <ele>253.916168</ele>
        <time>2024-07-07T09:19:59.000Z</time>
      </trkpt>
      <trkpt lat="48.294414" lon="14.343375">
        <ele>253.344797</ele>
        <time>2024-07-07T09:20:05.000Z</time>
      </trkpt>
      <trkpt lat="48.293961" lon="14.343946">
        <ele>253.137811</ele>
        <time>2024-07-07T09:20:12.000Z</time>
      </trkpt>
      <trkpt lat="48.293398" lon="14.344626">
        <ele>253.3165</ele>
        <time>2024-07-07T09:20:20.000Z</time>
      </trkpt>
      <trkpt lat="48.292998" lon="14.344966">
        <ele>253.428809</ele>
        <time>2024-07-07T09:20:25.000Z</time>
      </trkpt>
      <trkpt lat="48.292951" lon="14.34499">
        <ele>253.441931</ele>
        <time>2024-07-07T09:20:26.000Z</time>
      </trkpt>
      <trkpt lat="48.29257" lon="14.345233">
        <ele>253.461224</ele>
        <time>2024-07-07T09:20:31.000Z</time>
      </trkpt>
      <trkpt lat="48.292223" lon="14.345363">
        <ele>253.369626</ele>
        <time>2024-07-07T09:20:35.000Z</time>
      </trkpt>
      <trkpt lat="48.291882" lon="14.345428">
        <ele>253.285868</ele>
        <time>2024-07-07T09:20:39.000Z</time>
      </trkpt>
      <trkpt lat="48.291583" lon="14.345413">
        <ele>253.212693</ele>
        <time>2024-07-07T09:20:42.000Z</time>
      </trkpt>
      <trkpt lat="48.291225" lon="14.345331">
        <ele>253.122473</ele>
        <time>2024-07-07T09:20:46.000Z</time>
      </trkpt>
      <trkpt lat="48.290941" lon="14.345315">
        <ele>253.070813</ele>
        <time>2024-07-07T09:20:49.000Z</time>
      </trkpt>
      <trkpt lat="48.290583" lon="14.345356">
        <ele>253.255255</ele>
        <time>2024-07-07T09:20:53.000Z</time>
      </trkpt>
      <trkpt lat="48.290142" lon="14.34549">
        <ele>253.491668</ele>
        <time>2024-07-07T09:20:58.000Z</time>
      </trkpt>
      <trkpt lat="48.289812" lon="14.34566">
        <ele>253.671958</ele>
        <time>2024-07-07T09:21:02.000Z</time>
      </trkpt>
      <trkpt lat="48.28974" lon="14.345719">
        <ele>253.716439</ele>
        <time>2024-07-07T09:21:03.000Z</time>
      </trkpt>
      <trkpt lat="48.289217" lon="14.34627">
        <ele>254.006151</ele>
        <time>2024-07-07T09:21:10.000Z</time>
      </trkpt>
      <trkpt lat="48.28905" lon="14.346492">
        <ele>254.025576</ele>
        <time>2024-07-07T09:21:12.000Z</time>
      </trkpt>
      <trkpt lat="48.288782" lon="14.346932">
        <ele>254.060786</ele>
        <time>2024-07-07T09:21:16.000Z</time>
      </trkpt>
      <trkpt lat="48.288377" lon="14.347697">
        <ele>254.116281</ele>
        <time>2024-07-07T09:21:23.000Z</time>
      </trkpt>
      <trkpt lat="48.288245" lon="14.347916">
        <ele>254.133938</ele>
        <time>2024-07-07T09:21:25.000Z</time>
      </trkpt>
      <trkpt lat="48.28806" lon="14.348181">
        <ele>254.095674</ele>
        <time>2024-07-07T09:21:28.000Z</time>
      </trkpt>
      <trkpt lat="48.287772" lon="14.3485">
        <ele>253.488286</ele>
        <time>2024-07-07T09:21:32.000Z</time>
      </trkpt>
      <trkpt lat="48.287053" lon="14.349058">
        <ele>252.088414</ele>
        <time>2024-07-07T09:21:41.000Z</time>
      </trkpt>
      <trkpt lat="48.286773" lon="14.349214">
        <ele>251.588381</ele>
        <time>2024-07-07T09:21:44.000Z</time>
      </trkpt>
      <trkpt lat="48.286404" lon="14.349487">
        <ele>250.898408</ele>
        <time>2024-07-07T09:21:49.000Z</time>
      </trkpt>
      <trkpt lat="48.285918" lon="14.349873">
        <ele>250.115545</ele>
        <time>2024-07-07T09:21:55.000Z</time>
      </trkpt>
      <trkpt lat="48.285755" lon="14.350147">
        <ele>249.762651</ele>
        <time>2024-07-07T09:21:58.000Z</time>
      </trkpt>
      <trkpt lat="48.285315" lon="14.350673">
        <ele>248.959373</ele>
        <time>2024-07-07T09:22:04.000Z</time>
      </trkpt>
      <trkpt lat="48.285183" lon="14.350882">
        <ele>248.681439</ele>
        <time>2024-07-07T09:22:06.000Z</time>
      </trkpt>
      <trkpt lat="48.285114" lon="14.350993">
        <ele>248.537727</ele>
        <time>2024-07-07T09:22:07.000Z</time>
      </trkpt>
      <trkpt lat="48.28485" lon="14.351474">
        <ele>248.31141</ele>
        <time>2024-07-07T09:22:12.000Z</time>
      </trkpt>
      <trkpt lat="48.284578" lon="14.352048">
        <ele>248.109507</ele>
        <time>2024-07-07T09:22:17.000Z</time>
      </trkpt>
      <trkpt lat="48.284381" lon="14.352541">
        <ele>247.9437</ele>
        <time>2024-07-07T09:22:21.000Z</time>
      </trkpt>
      <trkpt lat="48.284165" lon="14.353071">
        <ele>247.772275</ele>
        <time>2024-07-07T09:22:26.000Z</time>
      </trkpt>
      <trkpt lat="48.283787" lon="14.3541">
        <ele>247.539821</ele>
        <time>2024-07-07T09:22:35.000Z</time>
      </trkpt>
      <trkpt lat="48.283476" lon="14.355114">
        <ele>247.346401</ele>
        <time>2024-07-07T09:22:43.000Z</time>
      </trkpt>
      <trkpt lat="48.283273" lon="14.35578">
        <ele>247.254499</ele>
        <time>2024-07-07T09:22:48.000Z</time>
      </trkpt>
      <trkpt lat="48.283147" lon="14.35619">
        <ele>247.392484</ele>
        <time>2024-07-07T09:22:51.000Z</time>
      </trkpt>
      <trkpt lat="48.282857" lon="14.357341">
        <ele>247.778188</ele>
        <time>2024-07-07T09:23:00.000Z</time>
      </trkpt>
      <trkpt lat="48.282589" lon="14.358578">
        <ele>248.273479</ele>
        <time>2024-07-07T09:23:10.000Z</time>
      </trkpt>
      <trkpt lat="48.282467" lon="14.359254">
        <ele>248.670142</ele>
        <time>2024-07-07T09:23:15.000Z</time>
      </trkpt>
      <trkpt lat="48.282237" lon="14.360646">
        <ele>249.489147</ele>
        <time>2024-07-07T09:23:26.000Z</time>
      </trkpt>
      <trkpt lat="48.282031" lon="14.362097">
        <ele>249.694885</ele>
        <time>2024-07-07T09:23:37.000Z</time>
      </trkpt>
      <trkpt lat="48.281896" lon="14.362781">
        <ele>249.742146</ele>
        <time>2024-07-07T09:23:42.000Z</time>
      </trkpt>
      <trkpt lat="48.281833" lon="14.363259">
        <ele>249.774066</ele>
        <time>2024-07-07T09:23:46.000Z</time>
      </trkpt>
      <trkpt lat="48.281839" lon="14.363256">
        <ele>249.774083</ele>
        <time>2024-07-07T09:23:46.000Z</time>
      </trkpt>
      <trkpt lat="48.281762" lon="14.364112">
        <ele>249.791652</ele>
        <time>2024-07-07T09:23:52.000Z</time>
      </trkpt>
      <trkpt lat="48.281698" lon="14.364939">
        <ele>249.794664</ele>
        <time>2024-07-07T09:23:58.000Z</time>
      </trkpt>
      <trkpt lat="48.281706" lon="14.364955">
        <ele>249.794652</ele>
        <time>2024-07-07T09:23:58.000Z</time>
      </trkpt>
      <trkpt lat="48.281711" lon="14.365065">
        <ele>249.795064</ele>
        <time>2024-07-07T09:23:59.000Z</time>
      </trkpt>
      <trkpt lat="48.281711" lon="14.365063">
        <ele>249.795061</ele>
        <time>2024-07-07T09:23:59.000Z</time>
      </trkpt>
      <trkpt lat="48.281778" lon="14.365158">
        <ele>249.795566</ele>
        <time>2024-07-07T09:24:00.000Z</time>
      </trkpt>
      <trkpt lat="48.281788" lon="14.365165">
        <ele>249.795581</ele>
        <time>2024-07-07T09:24:00.000Z</time>
      </trkpt>
      <trkpt lat="48.281985" lon="14.365296">
        <ele>249.796729</ele>
        <time>2024-07-07T09:24:02.000Z</time>
      </trkpt>
      <trkpt lat="48.282508" lon="14.365461">
        <ele>249.83901</ele>
        <time>2024-07-07T09:24:08.000Z</time>
      </trkpt>
      <trkpt lat="48.282502" lon="14.365466">
        <ele>249.839003</ele>
        <time>2024-07-07T09:24:08.000Z</time>
      </trkpt>
      <trkpt lat="48.2825" lon="14.365458">
        <ele>249.839019</ele>
        <time>2024-07-07T09:24:08.000Z</time>
      </trkpt>
      <trkpt lat="48.282767" lon="14.365484">
        <ele>249.942956</ele>
        <time>2024-07-07T09:24:11.000Z</time>
      </trkpt>
      <trkpt lat="48.282777" lon="14.365468">
        <ele>249.942958</ele>
        <time>2024-07-07T09:24:11.000Z</time>
      </trkpt>
      <trkpt lat="48.282876" lon="14.365481">
        <ele>249.981822</ele>
        <time>2024-07-07T09:24:12.000Z</time>
      </trkpt>
      <trkpt lat="48.282869" lon="14.365476">
        <ele>249.981827</ele>
        <time>2024-07-07T09:24:12.000Z</time>
      </trkpt>
      <trkpt lat="48.282936" lon="14.365404">
        <ele>250.016644</ele>
        <time>2024-07-07T09:24:13.000Z</time>
      </trkpt>
      <trkpt lat="48.28295" lon="14.365416">
        <ele>250.016628</ele>
        <time>2024-07-07T09:24:13.000Z</time>
      </trkpt>
      <trkpt lat="48.282978" lon="14.365286">
        <ele>250.052436</ele>
        <time>2024-07-07T09:24:14.000Z</time>
      </trkpt>
      <trkpt lat="48.282979" lon="14.365271">
        <ele>250.052433</ele>
        <time>2024-07-07T09:24:14.000Z</time>
      </trkpt>
      <trkpt lat="48.283069" lon="14.364812">
        <ele>250.183134</ele>
        <time>2024-07-07T09:24:18.000Z</time>
      </trkpt>
      <trkpt lat="48.283112" lon="14.364605">
        <ele>250.237065</ele>
        <time>2024-07-07T09:24:20.000Z</time>
      </trkpt>
      <trkpt lat="48.28323" lon="14.363852">
        <ele>250.443508</ele>
        <time>2024-07-07T09:24:26.000Z</time>
      </trkpt>
      <trkpt lat="48.283254" lon="14.363584">
        <ele>250.510003</ele>
        <time>2024-07-07T09:24:28.000Z</time>
      </trkpt>
      <trkpt lat="48.283272" lon="14.363435">
        <ele>250.489036</ele>
        <time>2024-07-07T09:24:29.000Z</time>
      </trkpt>
      <trkpt lat="48.283297" lon="14.363275">
        <ele>250.461971</ele>
        <time>2024-07-07T09:24:30.000Z</time>
      </trkpt>
      <trkpt lat="48.283307" lon="14.363153">
        <ele>250.443104</ele>
        <time>2024-07-07T09:24:31.000Z</time>
      </trkpt>
      <trkpt lat="48.283384" lon="14.362723">
        <ele>250.374867</ele>
        <time>2024-07-07T09:24:34.000Z</time>
      </trkpt>
      <trkpt lat="48.283425" lon="14.362495">
        <ele>250.341041</ele>
        <time>2024-07-07T09:24:36.000Z</time>
      </trkpt>
      <trkpt lat="48.283547" lon="14.361929">
        <ele>250.249712</ele>
        <time>2024-07-07T09:24:40.000Z</time>
      </trkpt>
      <trkpt lat="48.283598" lon="14.361608">
        <ele>250.199028</ele>
        <time>2024-07-07T09:24:42.000Z</time>
      </trkpt>
      <trkpt lat="48.283764" lon="14.360735">
        <ele>250.057204</ele>
        <time>2024-07-07T09:24:49.000Z</time>
      </trkpt>
      <trkpt lat="48.283796" lon="14.360622">
        <ele>250.037235</ele>
        <time>2024-07-07T09:24:50.000Z</time>
      </trkpt>
      <trkpt lat="48.28382" lon="14.360451">
        <ele>250.00658</ele>
        <time>2024-07-07T09:24:51.000Z</time>
      </trkpt>
      <trkpt lat="48.28392" lon="14.359967">
        <ele>249.920367</ele>
        <time>2024-07-07T09:24:55.000Z</time>
      </trkpt>
      <trkpt lat="48.284058" lon="14.359187">
        <ele>249.786023</ele>
        <time>2024-07-07T09:25:01.000Z</time>
      </trkpt>
      <trkpt lat="48.28407" lon="14.359128">
        <ele>249.774273</ele>
        <time>2024-07-07T09:25:01.000Z</time>
      </trkpt>
      <trkpt lat="48.284303" lon="14.357895">
        <ele>249.71517</ele>
        <time>2024-07-07T09:25:10.000Z</time>
      </trkpt>
      <trkpt lat="48.28437" lon="14.357453">
        <ele>249.778533</ele>
        <time>2024-07-07T09:25:13.000Z</time>
      </trkpt>
      <trkpt lat="48.284548" lon="14.356513">
        <ele>249.915975</ele>
        <time>2024-07-07T09:25:20.000Z</time>
      </trkpt>
      <trkpt lat="48.2846" lon="14.356192">
        <ele>249.961219</ele>
        <time>2024-07-07T09:25:22.000Z</time>
      </trkpt>
      <trkpt lat="48.284627" lon="14.354994">
        <ele>249.883096</ele>
        <time>2024-07-07T09:25:31.000Z</time>
      </trkpt>
      <trkpt lat="48.284634" lon="14.354746">
        <ele>249.838305</ele>
        <time>2024-07-07T09:25:33.000Z</time>
      </trkpt>
      <trkpt lat="48.28475" lon="14.35349">
        <ele>249.611626</ele>
        <time>2024-07-07T09:25:42.000Z</time>
      </trkpt>
      <trkpt lat="48.284779" lon="14.353129">
        <ele>249.545304</ele>
        <time>2024-07-07T09:25:45.000Z</time>
      </trkpt>
      <trkpt lat="48.284928" lon="14.352574">
        <ele>249.609033</ele>
        <time>2024-07-07T09:25:49.000Z</time>
      </trkpt>
      <trkpt lat="48.284976" lon="14.35243">
        <ele>249.629614</ele>
        <time>2024-07-07T09:25:50.000Z</time>
      </trkpt>
      <trkpt lat="48.285087" lon="14.35205">
        <ele>249.687646</ele>
        <time>2024-07-07T09:25:53.000Z</time>
      </trkpt>
      <trkpt lat="48.285259" lon="14.351482">
        <ele>249.7735</ele>
        <time>2024-07-07T09:25:58.000Z</time>
      </trkpt>
      <trkpt lat="48.285322" lon="14.351158">
        <ele>249.820217</ele>
        <time>2024-07-07T09:26:00.000Z</time>
      </trkpt>
      <trkpt lat="48.285309" lon="14.350953">
        <ele>249.848258</ele>
        <time>2024-07-07T09:26:02.000Z</time>
      </trkpt>
      <trkpt lat="48.285298" lon="14.350937">
        <ele>249.849777</ele>
        <time>2024-07-07T09:26:02.000Z</time>
      </trkpt>
      <trkpt lat="48.285321" lon="14.350672">
        <ele>249.885347</ele>
        <time>2024-07-07T09:26:04.000Z</time>
      </trkpt>
      <trkpt lat="48.285758" lon="14.350137">
        <ele>250.777313</ele>
        <time>2024-07-07T09:26:10.000Z</time>
      </trkpt>
      <trkpt lat="48.286009" lon="14.349951">
        <ele>251.319897</ele>
        <time>2024-07-07T09:26:13.000Z</time>
      </trkpt>
      <trkpt lat="48.286351" lon="14.34968">
        <ele>252.028382</ele>
        <time>2024-07-07T09:26:17.000Z</time>
      </trkpt>
      <trkpt lat="48.287246" lon="14.349056">
        <ele>253.681212</ele>
        <time>2024-07-07T09:26:28.000Z</time>
      </trkpt>
      <trkpt lat="48.287542" lon="14.348829">
        <ele>254.113746</ele>
        <time>2024-07-07T09:26:32.000Z</time>
      </trkpt>
      <trkpt lat="48.287812" lon="14.348588">
        <ele>254.486694</ele>
        <time>2024-07-07T09:26:35.000Z</time>
      </trkpt>
      <trkpt lat="48.288107" lon="14.348263">
        <ele>254.940965</ele>
        <time>2024-07-07T09:26:39.000Z</time>
      </trkpt>
      <trkpt lat="48.288347" lon="14.347935">
        <ele>255.346604</ele>
        <time>2024-07-07T09:26:43.000Z</time>
      </trkpt>
      <trkpt lat="48.288741" lon="14.347245">
        <ele>255.099108</ele>
        <time>2024-07-07T09:26:50.000Z</time>
      </trkpt>
      <trkpt lat="48.289096" lon="14.346595">
        <ele>254.579209</ele>
        <time>2024-07-07T09:26:56.000Z</time>
      </trkpt>
      <trkpt lat="48.289393" lon="14.346215">
        <ele>254.239557</ele>
        <time>2024-07-07T09:27:00.000Z</time>
      </trkpt>
      <trkpt lat="48.289565" lon="14.346009">
        <ele>254.027745</ele>
        <time>2024-07-07T09:27:02.000Z</time>
      </trkpt>
      <trkpt lat="48.289844" lon="14.345788">
        <ele>253.850815</ele>
        <time>2024-07-07T09:27:06.000Z</time>
      </trkpt>
      <trkpt lat="48.290219" lon="14.345593">
        <ele>253.756459</ele>
        <time>2024-07-07T09:27:10.000Z</time>
      </trkpt>
      <trkpt lat="48.290417" lon="14.345534">
        <ele>253.706564</ele>
        <time>2024-07-07T09:27:12.000Z</time>
      </trkpt>
      <trkpt lat="48.290867" lon="14.345432">
        <ele>253.601151</ele>
        <time>2024-07-07T09:27:17.000Z</time>
      </trkpt>
      <trkpt lat="48.291228" lon="14.345426">
        <ele>253.514356</ele>
        <time>2024-07-07T09:27:21.000Z</time>
      </trkpt>
      <trkpt lat="48.291592" lon="14.345407">
        <ele>253.45016</ele>
        <time>2024-07-07T09:27:25.000Z</time>
      </trkpt>
      <trkpt lat="48.291879" lon="14.345414">
        <ele>253.427854</ele>
        <time>2024-07-07T09:27:28.000Z</time>
      </trkpt>
      <trkpt lat="48.29221" lon="14.345367">
        <ele>253.402333</ele>
        <time>2024-07-07T09:27:32.000Z</time>
      </trkpt>
      <trkpt lat="48.292583" lon="14.345237">
        <ele>253.374425</ele>
        <time>2024-07-07T09:27:36.000Z</time>
      </trkpt>
      <trkpt lat="48.292956" lon="14.345007">
        <ele>253.343022</ele>
        <time>2024-07-07T09:27:40.000Z</time>
      </trkpt>
      <trkpt lat="48.293016" lon="14.34496">
        <ele>253.339063</ele>
        <time>2024-07-07T09:27:41.000Z</time>
      </trkpt>
      <trkpt lat="48.293396" lon="14.344626">
        <ele>253.346817</ele>
        <time>2024-07-07T09:27:46.000Z</time>
      </trkpt>
      <trkpt lat="48.293962" lon="14.343953">
        <ele>253.412382</ele>
        <time>2024-07-07T09:27:54.000Z</time>
      </trkpt>
      <trkpt lat="48.294406" lon="14.343365">
        <ele>253.467598</ele>
        <time>2024-07-07T09:28:01.000Z</time>
      </trkpt>
      <trkpt lat="48.294853" lon="14.34295">
        <ele>253.782264</ele>
        <time>2024-07-07T09:28:07.000Z</time>
      </trkpt>
      <trkpt lat="48.295222" lon="14.342707">
        <ele>254.202016</ele>
        <time>2024-07-07T09:28:11.000Z</time>
      </trkpt>
      <trkpt lat="48.295599" lon="14.342568">
        <ele>254.604219</ele>
        <time>2024-07-07T09:28:15.000Z</time>
      </trkpt>
      <trkpt lat="48.295988" lon="14.342521">
        <ele>255.012009</ele>
        <time>2024-07-07T09:28:19.000Z</time>
      </trkpt>
      <trkpt lat="48.296332" lon="14.342521">
        <ele>255.345325</ele>
        <time>2024-07-07T09:28:23.000Z</time>
      </trkpt>
      <trkpt lat="48.296907" lon="14.342588">
        <ele>255.057757</ele>
        <time>2024-07-07T09:28:29.000Z</time>
      </trkpt>
      <trkpt lat="48.298016" lon="14.34284">
        <ele>254.481196</ele>
        <time>2024-07-07T09:28:41.000Z</time>
      </trkpt>
      <trkpt lat="48.298431" lon="14.342855">
        <ele>254.677993</ele>
        <time>2024-07-07T09:28:46.000Z</time>
      </trkpt>
      <trkpt lat="48.298783" lon="14.342797">
        <ele>254.924558</ele>
        <time>2024-07-07T09:28:50.000Z</time>
      </trkpt>
      <trkpt lat="48.298969" lon="14.342743">
        <ele>255.057695</ele>
        <time>2024-07-07T09:28:52.000Z</time>
      </trkpt>
      <trkpt lat="48.299503" lon="14.342503">
        <ele>255.461184</ele>
        <time>2024-07-07T09:28:58.000Z</time>
      </trkpt>
      <trkpt lat="48.300419" lon="14.341919">
        <ele>256.064999</ele>
        <time>2024-07-07T09:29:09.000Z</time>
      </trkpt>
      <trkpt lat="48.300677" lon="14.341756">
        <ele>256.215563</ele>
        <time>2024-07-07T09:29:12.000Z</time>
      </trkpt>
      <trkpt lat="48.301338" lon="14.341309">
        <ele>256.617785</ele>
        <time>2024-07-07T09:29:20.000Z</time>
      </trkpt>
      <trkpt lat="48.302234" lon="14.340699">
        <ele>255.745984</ele>
        <time>2024-07-07T09:29:31.000Z</time>
      </trkpt>
      <trkpt lat="48.302715" lon="14.340296">
        <ele>255.104728</ele>
        <time>2024-07-07T09:29:37.000Z</time>
      </trkpt>
      <trkpt lat="48.303077" lon="14.339903">
        <ele>254.593645</ele>
        <time>2024-07-07T09:29:42.000Z</time>
      </trkpt>
      <trkpt lat="48.303333" lon="14.339566">
        <ele>254.305734</ele>
        <time>2024-07-07T09:29:46.000Z</time>
      </trkpt>
      <trkpt lat="48.303742" lon="14.338935">
        <ele>253.817791</ele>
        <time>2024-07-07T09:29:53.000Z</time>
      </trkpt>
      <trkpt lat="48.304144" lon="14.338363">
        <ele>253.363606</ele>
        <time>2024-07-07T09:29:59.000Z</time>
      </trkpt>
      <trkpt lat="48.30459" lon="14.337851">
        <ele>253.405831</ele>
        <time>2024-07-07T09:30:05.000Z</time>
      </trkpt>
      <trkpt lat="48.304967" lon="14.337528">
        <ele>253.909967</ele>
        <time>2024-07-07T09:30:10.000Z</time>
      </trkpt>
      <trkpt lat="48.30543" lon="14.337241">
        <ele>254.477246</ele>
        <time>2024-07-07T09:30:16.000Z</time>
      </trkpt>
      <trkpt lat="48.305948" lon="14.337032">
        <ele>255.090245</ele>
        <time>2024-07-07T09:30:22.000Z</time>
      </trkpt>
      <trkpt lat="48.307647" lon="14.336688">
        <ele>259.781725</ele>
        <time>2024-07-07T09:30:41.000Z</time>
      </trkpt>
      <trkpt lat="48.308162" lon="14.336598">
        <ele>260.200727</ele>
        <time>2024-07-07T09:30:47.000Z</time>
      </trkpt>
      <trkpt lat="48.308184" lon="14.336589">
        <ele>260.201797</ele>
        <time>2024-07-07T09:30:47.000Z</time>
      </trkpt>
      <trkpt lat="48.308684" lon="14.336493">
        <ele>260.229729</ele>
        <time>2024-07-07T09:30:53.000Z</time>
      </trkpt>
      <trkpt lat="48.30875" lon="14.336475">
        <ele>260.233669</ele>
        <time>2024-07-07T09:30:54.000Z</time>
      </trkpt>
      <trkpt lat="48.308987" lon="14.336423">
        <ele>260.246704</ele>
        <time>2024-07-07T09:30:57.000Z</time>
      </trkpt>
      <trkpt lat="48.309428" lon="14.336345">
        <ele>260.272005</ele>
        <time>2024-07-07T09:31:02.000Z</time>
      </trkpt>
      <trkpt lat="48.31011" lon="14.3362">
        <ele>259.217138</ele>
        <time>2024-07-07T09:31:10.000Z</time>
      </trkpt>
      <trkpt lat="48.310629" lon="14.336051">
        <ele>258.151171</ele>
        <time>2024-07-07T09:31:16.000Z</time>
      </trkpt>
      <trkpt lat="48.311023" lon="14.335876">
        <ele>257.325039</ele>
        <time>2024-07-07T09:31:21.000Z</time>
      </trkpt>
      <trkpt lat="48.31175" lon="14.335416">
        <ele>257.146004</ele>
        <time>2024-07-07T09:31:30.000Z</time>
      </trkpt>
      <trkpt lat="48.31228" lon="14.335149">
        <ele>257.72208</ele>
        <time>2024-07-07T09:31:36.000Z</time>
      </trkpt>
      <trkpt lat="48.312675" lon="14.335057">
        <ele>258.137294</ele>
        <time>2024-07-07T09:31:40.000Z</time>
      </trkpt>
      <trkpt lat="48.312745" lon="14.335052">
        <ele>258.198601</ele>
        <time>2024-07-07T09:31:41.000Z</time>
      </trkpt>
      <trkpt lat="48.31311" lon="14.335037">
        <ele>258.652781</ele>
        <time>2024-07-07T09:31:45.000Z</time>
      </trkpt>
      <trkpt lat="48.313353" lon="14.335092">
        <ele>259.352158</ele>
        <time>2024-07-07T09:31:48.000Z</time>
      </trkpt>
      <trkpt lat="48.313638" lon="14.335178">
        <ele>260.155738</ele>
        <time>2024-07-07T09:31:51.000Z</time>
      </trkpt>
      <trkpt lat="48.313881" lon="14.335309">
        <ele>260.895056</ele>
        <time>2024-07-07T09:31:54.000Z</time>
      </trkpt>
      <trkpt lat="48.314258" lon="14.335572">
        <ele>262.022052</ele>
        <time>2024-07-07T09:31:59.000Z</time>
      </trkpt>
      <trkpt lat="48.314497" lon="14.335803">
        <ele>262.820856</ele>
        <time>2024-07-07T09:32:02.000Z</time>
      </trkpt>
      <trkpt lat="48.314894" lon="14.336268">
        <ele>263.294353</ele>
        <time>2024-07-07T09:32:08.000Z</time>
      </trkpt>
      <trkpt lat="48.315271" lon="14.336714">
        <ele>262.906521</ele>
        <time>2024-07-07T09:32:13.000Z</time>
      </trkpt>
      <trkpt lat="48.315312" lon="14.336763">
        <ele>262.865615</ele>
        <time>2024-07-07T09:32:14.000Z</time>
      </trkpt>
      <trkpt lat="48.315586" lon="14.337033">
        <ele>262.599593</ele>
        <time>2024-07-07T09:32:18.000Z</time>
      </trkpt>
      <trkpt lat="48.315673" lon="14.337098">
        <ele>262.524849</ele>
        <time>2024-07-07T09:32:19.000Z</time>
      </trkpt>
      <trkpt lat="48.315924" lon="14.337329">
        <ele>262.286888</ele>
        <time>2024-07-07T09:32:22.000Z</time>
      </trkpt>
      <trkpt lat="48.316336" lon="14.337595">
        <ele>261.601248</ele>
        <time>2024-07-07T09:32:27.000Z</time>
      </trkpt>
      <trkpt lat="48.317218" lon="14.338102">
        <ele>258.934713</ele>
        <time>2024-07-07T09:32:38.000Z</time>
      </trkpt>
      <trkpt lat="48.317451" lon="14.338251">
        <ele>258.187104</ele>
        <time>2024-07-07T09:32:41.000Z</time>
      </trkpt>
      <trkpt lat="48.318293" lon="14.338719">
        <ele>257.249005</ele>
        <time>2024-07-07T09:32:51.000Z</time>
      </trkpt>
      <trkpt lat="48.318648" lon="14.338918">
        <ele>257.515999</ele>
        <time>2024-07-07T09:32:55.000Z</time>
      </trkpt>
      <trkpt lat="48.318892" lon="14.339054">
        <ele>257.691925</ele>
        <time>2024-07-07T09:32:58.000Z</time>
      </trkpt>
      <trkpt lat="48.319079" lon="14.339157">
        <ele>257.833559</ele>
        <time>2024-07-07T09:33:00.000Z</time>
      </trkpt>
      <trkpt lat="48.319118" lon="14.339182">
        <ele>257.869659</ele>
        <time>2024-07-07T09:33:00.000Z</time>
      </trkpt>
      <trkpt lat="48.319176" lon="14.339214">
        <ele>257.902672</ele>
        <time>2024-07-07T09:33:01.000Z</time>
      </trkpt>
      <trkpt lat="48.319223" lon="14.339246">
        <ele>257.950012</ele>
        <time>2024-07-07T09:33:02.000Z</time>
      </trkpt>
      <trkpt lat="48.319448" lon="14.33937">
        <ele>258.110014</ele>
        <time>2024-07-07T09:33:05.000Z</time>
      </trkpt>
      <trkpt lat="48.319531" lon="14.339425">
        <ele>258.17376</ele>
        <time>2024-07-07T09:33:06.000Z</time>
      </trkpt>
      <trkpt lat="48.319691" lon="14.339515">
        <ele>258.526661</ele>
        <time>2024-07-07T09:33:08.000Z</time>
      </trkpt>
      <trkpt lat="48.319773" lon="14.339587">
        <ele>258.767449</ele>
        <time>2024-07-07T09:33:09.000Z</time>
      </trkpt>
      <trkpt lat="48.32001" lon="14.339823">
        <ele>259.413872</ele>
        <time>2024-07-07T09:33:12.000Z</time>
      </trkpt>
      <trkpt lat="48.32028" lon="14.340098">
        <ele>260.184913</ele>
        <time>2024-07-07T09:33:16.000Z</time>
      </trkpt>
      <trkpt lat="48.320608" lon="14.340446">
        <ele>261.1318</ele>
        <time>2024-07-07T09:33:20.000Z</time>
      </trkpt>
      <trkpt lat="48.320907" lon="14.340757">
        <ele>261.940216</ele>
        <time>2024-07-07T09:33:24.000Z</time>
      </trkpt>
      <trkpt lat="48.321125" lon="14.340916">
        <ele>262.324783</ele>
        <time>2024-07-07T09:33:27.000Z</time>
      </trkpt>
      <trkpt lat="48.321442" lon="14.340964">
        <ele>262.035641</ele>
        <time>2024-07-07T09:33:31.000Z</time>
      </trkpt>
      <trkpt lat="48.321681" lon="14.340904">
        <ele>261.820307</ele>
        <time>2024-07-07T09:33:34.000Z</time>
      </trkpt>
      <trkpt lat="48.321774" lon="14.340874">
        <ele>261.744552</ele>
        <time>2024-07-07T09:33:35.000Z</time>
      </trkpt>
      <trkpt lat="48.322209" lon="14.340739">
        <ele>261.352702</ele>
        <time>2024-07-07T09:33:40.000Z</time>
      </trkpt>
      <trkpt lat="48.322554" lon="14.340611">
        <ele>261.046667</ele>
        <time>2024-07-07T09:33:44.000Z</time>
      </trkpt>
      <trkpt lat="48.322819" lon="14.34051">
        <ele>260.798633</ele>
        <time>2024-07-07T09:33:47.000Z</time>
      </trkpt>
      <trkpt lat="48.323335" lon="14.340191">
        <ele>260.136509</ele>
        <time>2024-07-07T09:33:53.000Z</time>
      </trkpt>
      <trkpt lat="48.324443" lon="14.339327">
        <ele>258.621872</ele>
        <time>2024-07-07T09:34:07.000Z</time>
      </trkpt>
      <trkpt lat="48.324591" lon="14.339233">
        <ele>258.637646</ele>
        <time>2024-07-07T09:34:09.000Z</time>
      </trkpt>
      <trkpt lat="48.324659" lon="14.339187">
        <ele>258.646696</ele>
        <time>2024-07-07T09:34:10.000Z</time>
      </trkpt>
      <trkpt lat="48.324784" lon="14.339093">
        <ele>258.660752</ele>
        <time>2024-07-07T09:34:12.000Z</time>
      </trkpt>
      <trkpt lat="48.32574" lon="14.338589">
        <ele>258.768135</ele>
        <time>2024-07-07T09:34:23.000Z</time>
      </trkpt>
      <trkpt lat="48.326092" lon="14.338323">
        <ele>258.810582</ele>
        <time>2024-07-07T09:34:27.000Z</time>
      </trkpt>
      <trkpt lat="48.326156" lon="14.338256">
        <ele>258.885413</ele>
        <time>2024-07-07T09:34:28.000Z</time>
      </trkpt>
      <trkpt lat="48.326229" lon="14.338148">
        <ele>259.01347</ele>
        <time>2024-07-07T09:34:29.000Z</time>
      </trkpt>
      <trkpt lat="48.326296" lon="14.338083">
        <ele>259.10616</ele>
        <time>2024-07-07T09:34:30.000Z</time>
      </trkpt>
      <trkpt lat="48.32639" lon="14.337946">
        <ele>259.260749</ele>
        <time>2024-07-07T09:34:31.000Z</time>
      </trkpt>
      <trkpt lat="48.326523" lon="14.337646">
        <ele>259.540398</ele>
        <time>2024-07-07T09:34:34.000Z</time>
      </trkpt>
      <trkpt lat="48.326551" lon="14.337594">
        <ele>259.605354</ele>
        <time>2024-07-07T09:34:34.000Z</time>
      </trkpt>
      <trkpt lat="48.326594" lon="14.337473">
        <ele>259.711517</ele>
        <time>2024-07-07T09:34:35.000Z</time>
      </trkpt>
      <trkpt lat="48.32694" lon="14.336341">
        <ele>260.712346</ele>
        <time>2024-07-07T09:34:44.000Z</time>
      </trkpt>
      <trkpt lat="48.327062" lon="14.336133">
        <ele>260.943999</ele>
        <time>2024-07-07T09:34:46.000Z</time>
      </trkpt>
      <trkpt lat="48.327287" lon="14.335866">
        <ele>262.034085</ele>
        <time>2024-07-07T09:34:49.000Z</time>
      </trkpt>
      <trkpt lat="48.327428" lon="14.335698">
        <ele>262.771746</ele>
        <time>2024-07-07T09:34:51.000Z</time>
      </trkpt>
      <trkpt lat="48.327468" lon="14.335738">
        <ele>262.979622</ele>
        <time>2024-07-07T09:34:52.000Z</time>
      </trkpt>
      <trkpt lat="48.32752" lon="14.335877">
        <ele>263.447808</ele>
        <time>2024-07-07T09:34:53.000Z</time>
      </trkpt>
      <trkpt lat="48.327538" lon="14.336084">
        <ele>264.006121</ele>
        <time>2024-07-07T09:34:55.000Z</time>
      </trkpt>
      <trkpt lat="48.327518" lon="14.336495">
        <ele>265.163688</ele>
        <time>2024-07-07T09:34:58.000Z</time>
      </trkpt>
      <trkpt lat="48.327456" lon="14.337347">
        <ele>267.526079</ele>
        <time>2024-07-07T09:35:04.000Z</time>
      </trkpt>
      <trkpt lat="48.327465" lon="14.337413">
        <ele>267.716052</ele>
        <time>2024-07-07T09:35:04.000Z</time>
      </trkpt>
      <trkpt lat="48.327454" lon="14.337702">
        <ele>268.527339</ele>
        <time>2024-07-07T09:35:06.000Z</time>
      </trkpt>
      <trkpt lat="48.327447" lon="14.338066">
        <ele>270.150524</ele>
        <time>2024-07-07T09:35:09.000Z</time>
      </trkpt>
      <trkpt lat="48.327489" lon="14.338433">
        <ele>271.771321</ele>
        <time>2024-07-07T09:35:12.000Z</time>
      </trkpt>
      <trkpt lat="48.327565" lon="14.338695">
        <ele>273.083046</ele>
        <time>2024-07-07T09:35:14.000Z</time>
      </trkpt>
      <trkpt lat="48.327743" lon="14.339083">
        <ele>275.139905</ele>
        <time>2024-07-07T09:35:17.000Z</time>
      </trkpt>
      <trkpt lat="48.327992" lon="14.339521">
        <ele>277.72948</ele>
        <time>2024-07-07T09:35:21.000Z</time>
      </trkpt>
      <trkpt lat="48.328172" lon="14.340066">
        <ele>280.417456</ele>
        <time>2024-07-07T09:35:26.000Z</time>
      </trkpt>
      <trkpt lat="48.328279" lon="14.340639">
        <ele>283.855117</ele>
        <time>2024-07-07T09:35:30.000Z</time>
      </trkpt>
      <trkpt lat="48.328368" lon="14.341919">
        <ele>291.330943</ele>
        <time>2024-07-07T09:35:40.000Z</time>
      </trkpt>
      <trkpt lat="48.328446" lon="14.342712">
        <ele>296.088302</ele>
        <time>2024-07-07T09:35:46.000Z</time>
      </trkpt>
      <trkpt lat="48.328529" lon="14.34297">
        <ele>298.070409</ele>
        <time>2024-07-07T09:35:48.000Z</time>
      </trkpt>
      <trkpt lat="48.328681" lon="14.343235">
        <ele>300.534124</ele>
        <time>2024-07-07T09:35:51.000Z</time>
      </trkpt>
      <trkpt lat="48.328796" lon="14.343481">
        <ele>302.617147</ele>
        <time>2024-07-07T09:35:53.000Z</time>
      </trkpt>
      <trkpt lat="48.328849" lon="14.343712">
        <ele>304.442053</ele>
        <time>2024-07-07T09:35:55.000Z</time>
      </trkpt>
      <trkpt lat="48.32888" lon="14.344031">
        <ele>306.648515</ele>
        <time>2024-07-07T09:35:57.000Z</time>
      </trkpt>
      <trkpt lat="48.328947" lon="14.344387">
        <ele>309.356355</ele>
        <time>2024-07-07T09:36:00.000Z</time>
      </trkpt>
      <trkpt lat="48.329125" lon="14.344826">
        <ele>312.95877</ele>
        <time>2024-07-07T09:36:04.000Z</time>
      </trkpt>
      <trkpt lat="48.329202" lon="14.345078">
        <ele>314.981503</ele>
        <time>2024-07-07T09:36:06.000Z</time>
      </trkpt>
      <trkpt lat="48.329216" lon="14.345282">
        <ele>316.202952</ele>
        <time>2024-07-07T09:36:08.000Z</time>
      </trkpt>
      <trkpt lat="48.329211" lon="14.345461">
        <ele>317.162689</ele>
        <time>2024-07-07T09:36:09.000Z</time>
      </trkpt>
      <trkpt lat="48.329116" lon="14.34597">
        <ele>319.975014</ele>
        <time>2024-07-07T09:36:13.000Z</time>
      </trkpt>
      <trkpt lat="48.329098" lon="14.346026">
        <ele>320.326264</ele>
        <time>2024-07-07T09:36:13.000Z</time>
      </trkpt>
      <trkpt lat="48.328986" lon="14.346497">
        <ele>323.017795</ele>
        <time>2024-07-07T09:36:17.000Z</time>
      </trkpt>
      <trkpt lat="48.328662" lon="14.347778">
        <ele>330.349526</ele>
        <time>2024-07-07T09:36:27.000Z</time>
      </trkpt>
      <trkpt lat="48.328589" lon="14.348053">
        <ele>331.870611</ele>
        <time>2024-07-07T09:36:29.000Z</time>
      </trkpt>
      <trkpt lat="48.328517" lon="14.348363">
        <ele>333.540657</ele>
        <time>2024-07-07T09:36:31.000Z</time>
      </trkpt>
      <trkpt lat="48.328417" lon="14.348991">
        <ele>336.817484</ele>
        <time>2024-07-07T09:36:36.000Z</time>
      </trkpt>
      <trkpt lat="48.328406" lon="14.349087">
        <ele>337.339023</ele>
        <time>2024-07-07T09:36:37.000Z</time>
      </trkpt>
      <trkpt lat="48.328362" lon="14.349351">
        <ele>338.749334</ele>
        <time>2024-07-07T09:36:39.000Z</time>
      </trkpt>
      <trkpt lat="48.328342" lon="14.349484">
        <ele>339.490619</ele>
        <time>2024-07-07T09:36:40.000Z</time>
      </trkpt>
      <trkpt lat="48.328307" lon="14.349766">
        <ele>340.919475</ele>
        <time>2024-07-07T09:36:42.000Z</time>
      </trkpt>
      <trkpt lat="48.328274" lon="14.349974">
        <ele>342.014581</ele>
        <time>2024-07-07T09:36:44.000Z</time>
      </trkpt>
      <trkpt lat="48.328252" lon="14.350101">
        <ele>342.712196</ele>
        <time>2024-07-07T09:36:45.000Z</time>
      </trkpt>
      <trkpt lat="48.328145" lon="14.350729">
        <ele>345.759387</ele>
        <time>2024-07-07T09:36:50.000Z</time>
      </trkpt>
      <trkpt lat="48.328107" lon="14.351042">
        <ele>347.188526</ele>
        <time>2024-07-07T09:36:52.000Z</time>
      </trkpt>
      <trkpt lat="48.328106" lon="14.351286">
        <ele>348.267919</ele>
        <time>2024-07-07T09:36:54.000Z</time>
      </trkpt>
      <trkpt lat="48.32824" lon="14.351977">
        <ele>351.531074</ele>
        <time>2024-07-07T09:36:59.000Z</time>
      </trkpt>
      <trkpt lat="48.329219" lon="14.35666">
        <ele>370.309531</ele>
        <time>2024-07-07T09:37:35.000Z</time>
      </trkpt>
      <trkpt lat="48.329565" lon="14.358287">
        <ele>377.339937</ele>
        <time>2024-07-07T09:37:48.000Z</time>
      </trkpt>
      <trkpt lat="48.329861" lon="14.359191">
        <ele>382.254114</ele>
        <time>2024-07-07T09:37:55.000Z</time>
      </trkpt>
      <trkpt lat="48.33096" lon="14.362406">
        <ele>399.825191</ele>
        <time>2024-07-07T09:38:22.000Z</time>
      </trkpt>
      <trkpt lat="48.331077" lon="14.362813">
        <ele>402.022</ele>
        <time>2024-07-07T09:38:25.000Z</time>
      </trkpt>
      <trkpt lat="48.331133" lon="14.363102">
        <ele>403.199746</ele>
        <time>2024-07-07T09:38:27.000Z</time>
      </trkpt>
      <trkpt lat="48.331145" lon="14.363413">
        <ele>404.072448</ele>
        <time>2024-07-07T09:38:29.000Z</time>
      </trkpt>
      <trkpt lat="48.331058" lon="14.363872">
        <ele>405.393117</ele>
        <time>2024-07-07T09:38:33.000Z</time>
      </trkpt>
      <trkpt lat="48.33029" lon="14.367889">
        <ele>415.135586</ele>
        <time>2024-07-07T09:39:04.000Z</time>
      </trkpt>
      <trkpt lat="48.329673" lon="14.371179">
        <ele>421.923588</ele>
        <time>2024-07-07T09:39:29.000Z</time>
      </trkpt>
      <trkpt lat="48.32955" lon="14.372028">
        <ele>423.707523</ele>
        <time>2024-07-07T09:39:35.000Z</time>
      </trkpt>
      <trkpt lat="48.329532" lon="14.372568">
        <ele>424.819859</ele>
        <time>2024-07-07T09:39:39.000Z</time>
      </trkpt>
      <trkpt lat="48.32955" lon="14.373089">
        <ele>425.922722</ele>
        <time>2024-07-07T09:39:43.000Z</time>
      </trkpt>
      <trkpt lat="48.329602" lon="14.373763">
        <ele>427.012918</ele>
        <time>2024-07-07T09:39:48.000Z</time>
      </trkpt>
      <trkpt lat="48.329801" lon="14.374724">
        <ele>428.063735</ele>
        <time>2024-07-07T09:39:55.000Z</time>
      </trkpt>
      <trkpt lat="48.329847" lon="14.375093">
        <ele>428.442558</ele>
        <time>2024-07-07T09:39:58.000Z</time>
      </trkpt>
      <trkpt lat="48.329873" lon="14.375887">
        <ele>429.281681</ele>
        <time>2024-07-07T09:40:04.000Z</time>
      </trkpt>
      <trkpt lat="48.329883" lon="14.375972">
        <ele>429.376677</ele>
        <time>2024-07-07T09:40:05.000Z</time>
      </trkpt>
      <trkpt lat="48.329861" lon="14.376704">
        <ele>429.320364</ele>
        <time>2024-07-07T09:40:10.000Z</time>
      </trkpt>
      <trkpt lat="48.329834" lon="14.377159">
        <ele>429.168526</ele>
        <time>2024-07-07T09:40:13.000Z</time>
      </trkpt>
      <trkpt lat="48.329831" lon="14.377346">
        <ele>429.105155</ele>
        <time>2024-07-07T09:40:14.000Z</time>
      </trkpt>
      <trkpt lat="48.329814" lon="14.377829">
        <ele>428.949277</ele>
        <time>2024-07-07T09:40:18.000Z</time>
      </trkpt>
      <trkpt lat="48.329787" lon="14.378119">
        <ele>428.853604</ele>
        <time>2024-07-07T09:40:20.000Z</time>
      </trkpt>
      <trkpt lat="48.329771" lon="14.378687">
        <ele>428.668973</ele>
        <time>2024-07-07T09:40:24.000Z</time>
      </trkpt>
      <trkpt lat="48.329755" lon="14.378813">
        <ele>428.626057</ele>
        <time>2024-07-07T09:40:25.000Z</time>
      </trkpt>
      <trkpt lat="48.329761" lon="14.379">
        <ele>428.561866</ele>
        <time>2024-07-07T09:40:26.000Z</time>
      </trkpt>
      <trkpt lat="48.329733" lon="14.379615">
        <ele>428.356704</ele>
        <time>2024-07-07T09:40:31.000Z</time>
      </trkpt>
      <trkpt lat="48.329731" lon="14.379761">
        <ele>428.310031</ele>
        <time>2024-07-07T09:40:32.000Z</time>
      </trkpt>
      <trkpt lat="48.329729" lon="14.38004">
        <ele>428.210058</ele>
        <time>2024-07-07T09:40:34.000Z</time>
      </trkpt>
      <trkpt lat="48.329719" lon="14.380086">
        <ele>428.198203</ele>
        <time>2024-07-07T09:40:34.000Z</time>
      </trkpt>
      <trkpt lat="48.329724" lon="14.380388">
        <ele>428.094253</ele>
        <time>2024-07-07T09:40:36.000Z</time>
      </trkpt>
      <trkpt lat="48.329789" lon="14.380839">
        <ele>427.940501</ele>
        <time>2024-07-07T09:40:39.000Z</time>
      </trkpt>
      <trkpt lat="48.330139" lon="14.38185">
        <ele>426.433239</ele>
        <time>2024-07-07T09:40:47.000Z</time>
      </trkpt>
      <trkpt lat="48.330212" lon="14.38218">
        <ele>425.447523</ele>
        <time>2024-07-07T09:40:50.000Z</time>
      </trkpt>
      <trkpt lat="48.33044" lon="14.383212">
        <ele>422.460246</ele>
        <time>2024-07-07T09:40:58.000Z</time>
      </trkpt>
      <trkpt lat="48.330583" lon="14.38368">
        <ele>421.068455</ele>
        <time>2024-07-07T09:41:02.000Z</time>
      </trkpt>
      <trkpt lat="48.330908" lon="14.38451">
        <ele>417.110617</ele>
        <time>2024-07-07T09:41:09.000Z</time>
      </trkpt>
      <trkpt lat="48.330971" lon="14.384595">
        <ele>416.554353</ele>
        <time>2024-07-07T09:41:10.000Z</time>
      </trkpt>
      <trkpt lat="48.331205" lon="14.384907">
        <ele>414.371887</ele>
        <time>2024-07-07T09:41:13.000Z</time>
      </trkpt>
      <trkpt lat="48.33152" lon="14.385187">
        <ele>411.841919</ele>
        <time>2024-07-07T09:41:17.000Z</time>
      </trkpt>
      <trkpt lat="48.33185" lon="14.385433">
        <ele>409.192626</ele>
        <time>2024-07-07T09:41:21.000Z</time>
      </trkpt>
      <trkpt lat="48.333282" lon="14.386273">
        <ele>404.098603</ele>
        <time>2024-07-07T09:41:38.000Z</time>
      </trkpt>
      <trkpt lat="48.333388" lon="14.386301">
        <ele>403.782727</ele>
        <time>2024-07-07T09:41:39.000Z</time>
      </trkpt>
      <trkpt lat="48.333575" lon="14.386287">
        <ele>403.262318</ele>
        <time>2024-07-07T09:41:41.000Z</time>
      </trkpt>
      <trkpt lat="48.333649" lon="14.386334">
        <ele>403.062864</ele>
        <time>2024-07-07T09:41:42.000Z</time>
      </trkpt>
      <trkpt lat="48.333666" lon="14.386396">
        <ele>402.953308</ele>
        <time>2024-07-07T09:41:42.000Z</time>
      </trkpt>
      <trkpt lat="48.333646" lon="14.386539">
        <ele>402.739966</ele>
        <time>2024-07-07T09:41:43.000Z</time>
      </trkpt>
      <trkpt lat="48.333871" lon="14.38666">
        <ele>402.414916</ele>
        <time>2024-07-07T09:41:46.000Z</time>
      </trkpt>
      <trkpt lat="48.334069" lon="14.386923">
        <ele>402.042508</ele>
        <time>2024-07-07T09:41:49.000Z</time>
      </trkpt>
      <trkpt lat="48.334328" lon="14.387325">
        <ele>401.542228</ele>
        <time>2024-07-07T09:41:53.000Z</time>
      </trkpt>
      <trkpt lat="48.334449" lon="14.387448">
        <ele>401.32582</ele>
        <time>2024-07-07T09:41:55.000Z</time>
      </trkpt>
      <trkpt lat="48.334627" lon="14.387549">
        <ele>401.060259</ele>
        <time>2024-07-07T09:41:57.000Z</time>
      </trkpt>
      <trkpt lat="48.334882" lon="14.387602">
        <ele>400.712041</ele>
        <time>2024-07-07T09:42:00.000Z</time>
      </trkpt>
      <trkpt lat="48.335362" lon="14.387593">
        <ele>399.551452</ele>
        <time>2024-07-07T09:42:05.000Z</time>
      </trkpt>
      <trkpt lat="48.335554" lon="14.387552">
        <ele>398.732707</ele>
        <time>2024-07-07T09:42:07.000Z</time>
      </trkpt>
      <trkpt lat="48.33561" lon="14.387453">
        <ele>398.383401</ele>
        <time>2024-07-07T09:42:08.000Z</time>
      </trkpt>
      <trkpt lat="48.335618" lon="14.387368">
        <ele>398.152591</ele>
        <time>2024-07-07T09:42:09.000Z</time>
      </trkpt>
      <trkpt lat="48.335509" lon="14.386843">
        <ele>396.636732</ele>
        <time>2024-07-07T09:42:13.000Z</time>
      </trkpt>
      <trkpt lat="48.335473" lon="14.386361">
        <ele>395.322879</ele>
        <time>2024-07-07T09:42:17.000Z</time>
      </trkpt>
      <trkpt lat="48.335485" lon="14.385796">
        <ele>393.781319</ele>
        <time>2024-07-07T09:42:21.000Z</time>
      </trkpt>
      <trkpt lat="48.335488" lon="14.385592">
        <ele>393.203907</ele>
        <time>2024-07-07T09:42:23.000Z</time>
      </trkpt>
      <trkpt lat="48.335511" lon="14.385231">
        <ele>392.289713</ele>
        <time>2024-07-07T09:42:26.000Z</time>
      </trkpt>
      <trkpt lat="48.335517" lon="14.384982">
        <ele>391.699174</ele>
        <time>2024-07-07T09:42:28.000Z</time>
      </trkpt>
      <trkpt lat="48.335564" lon="14.384706">
        <ele>391.007701</ele>
        <time>2024-07-07T09:42:30.000Z</time>
      </trkpt>
      <trkpt lat="48.335644" lon="14.384527">
        <ele>390.520786</ele>
        <time>2024-07-07T09:42:32.000Z</time>
      </trkpt>
      <trkpt lat="48.335777" lon="14.384385">
        <ele>389.933655</ele>
        <time>2024-07-07T09:42:34.000Z</time>
      </trkpt>
      <trkpt lat="48.335929" lon="14.384329">
        <ele>389.396774</ele>
        <time>2024-07-07T09:42:36.000Z</time>
      </trkpt>
      <trkpt lat="48.336302" lon="14.384163">
        <ele>388.028274</ele>
        <time>2024-07-07T09:42:40.000Z</time>
      </trkpt>
      <trkpt lat="48.336423" lon="14.384099">
        <ele>387.573466</ele>
        <time>2024-07-07T09:42:41.000Z</time>
      </trkpt>
      <trkpt lat="48.336489" lon="14.384086">
        <ele>387.346392</ele>
        <time>2024-07-07T09:42:42.000Z</time>
      </trkpt>
      <trkpt lat="48.336536" lon="14.384088">
        <ele>387.144389</ele>
        <time>2024-07-07T09:42:43.000Z</time>
      </trkpt>
      <trkpt lat="48.336469" lon="14.383201">
        <ele>385.126941</ele>
        <time>2024-07-07T09:42:50.000Z</time>
      </trkpt>
      <trkpt lat="48.336459" lon="14.382472">
        <ele>383.486014</ele>
        <time>2024-07-07T09:42:55.000Z</time>
      </trkpt>
      <trkpt lat="48.336519" lon="14.381745">
        <ele>381.837753</ele>
        <time>2024-07-07T09:43:00.000Z</time>
      </trkpt>
      <trkpt lat="48.336573" lon="14.381238">
        <ele>380.644375</ele>
        <time>2024-07-07T09:43:04.000Z</time>
      </trkpt>
      <trkpt lat="48.336705" lon="14.380622">
        <ele>379.12573</ele>
        <time>2024-07-07T09:43:09.000Z</time>
      </trkpt>
      <trkpt lat="48.336803" lon="14.380243">
        <ele>378.138139</ele>
        <time>2024-07-07T09:43:12.000Z</time>
      </trkpt>
      <trkpt lat="48.336927" lon="14.379961">
        <ele>377.294216</ele>
        <time>2024-07-07T09:43:15.000Z</time>
      </trkpt>
      <trkpt lat="48.337081" lon="14.379689">
        <ele>376.450535</ele>
        <time>2024-07-07T09:43:18.000Z</time>
      </trkpt>
      <trkpt lat="48.337239" lon="14.379493">
        <ele>375.692391</ele>
        <time>2024-07-07T09:43:20.000Z</time>
      </trkpt>
      <trkpt lat="48.337511" lon="14.379276">
        <ele>374.581541</ele>
        <time>2024-07-07T09:43:23.000Z</time>
      </trkpt>
      <trkpt lat="48.33771" lon="14.379166">
        <ele>373.815202</ele>
        <time>2024-07-07T09:43:25.000Z</time>
      </trkpt>
      <trkpt lat="48.337983" lon="14.378977">
        <ele>372.54905</ele>
        <time>2024-07-07T09:43:28.000Z</time>
      </trkpt>
      <trkpt lat="48.338166" lon="14.378743">
        <ele>371.527732</ele>
        <time>2024-07-07T09:43:31.000Z</time>
      </trkpt>
      <trkpt lat="48.338239" lon="14.378416">
        <ele>370.54808</ele>
        <time>2024-07-07T09:43:34.000Z</time>
      </trkpt>
      <trkpt lat="48.338216" lon="14.378096">
        <ele>369.614855</ele>
        <time>2024-07-07T09:43:36.000Z</time>
      </trkpt>
      <trkpt lat="48.338105" lon="14.377756">
        <ele>368.533386</ele>
        <time>2024-07-07T09:43:39.000Z</time>
      </trkpt>
      <trkpt lat="48.337887" lon="14.377405">
        <ele>367.187357</ele>
        <time>2024-07-07T09:43:43.000Z</time>
      </trkpt>
      <trkpt lat="48.337861" lon="14.377378">
        <ele>367.040716</ele>
        <time>2024-07-07T09:43:43.000Z</time>
      </trkpt>
      <trkpt lat="48.33738" lon="14.376598">
        <ele>364.631264</ele>
        <time>2024-07-07T09:43:51.000Z</time>
      </trkpt>
      <trkpt lat="48.337233" lon="14.37616">
        <ele>363.630683</ele>
        <time>2024-07-07T09:43:55.000Z</time>
      </trkpt>
      <trkpt lat="48.337159" lon="14.375818">
        <ele>362.910519</ele>
        <time>2024-07-07T09:43:58.000Z</time>
      </trkpt>
      <trkpt lat="48.337163" lon="14.375335">
        <ele>361.904815</ele>
        <time>2024-07-07T09:44:02.000Z</time>
      </trkpt>
      <trkpt lat="48.337406" lon="14.373542">
        <ele>359.712369</ele>
        <time>2024-07-07T09:44:16.000Z</time>
      </trkpt>
      <trkpt lat="48.337447" lon="14.372978">
        <ele>359.278935</ele>
        <time>2024-07-07T09:44:20.000Z</time>
      </trkpt>
      <trkpt lat="48.337392" lon="14.372051">
        <ele>358.55873</ele>
        <time>2024-07-07T09:44:27.000Z</time>
      </trkpt>
      <trkpt lat="48.337362" lon="14.371599">
        <ele>358.213234</ele>
        <time>2024-07-07T09:44:30.000Z</time>
      </trkpt>
      <trkpt lat="48.337126" lon="14.368239">
        <ele>355.552099</ele>
        <time>2024-07-07T09:44:55.000Z</time>
      </trkpt>
      <trkpt lat="48.337074" lon="14.367474">
        <ele>354.949268</ele>
        <time>2024-07-07T09:45:01.000Z</time>
      </trkpt>
      <trkpt lat="48.337047" lon="14.367278">
        <ele>354.792288</ele>
        <time>2024-07-07T09:45:02.000Z</time>
      </trkpt>
      <trkpt lat="48.337049" lon="14.367137">
        <ele>354.685481</ele>
        <time>2024-07-07T09:45:03.000Z</time>
      </trkpt>
      <trkpt lat="48.33704" lon="14.367067">
        <ele>354.627434</ele>
        <time>2024-07-07T09:45:04.000Z</time>
      </trkpt>
      <trkpt lat="48.336972" lon="14.366101">
        <ele>353.998875</ele>
        <time>2024-07-07T09:45:11.000Z</time>
      </trkpt>
      <trkpt lat="48.336955" lon="14.365978">
        <ele>353.922815</ele>
        <time>2024-07-07T09:45:12.000Z</time>
      </trkpt>
      <trkpt lat="48.336931" lon="14.365502">
        <ele>353.660637</ele>
        <time>2024-07-07T09:45:16.000Z</time>
      </trkpt>
      <trkpt lat="48.336889" lon="14.36493">
        <ele>353.340664</ele>
        <time>2024-07-07T09:45:20.000Z</time>
      </trkpt>
      <trkpt lat="48.33686" lon="14.364374">
        <ele>353.019163</ele>
        <time>2024-07-07T09:45:24.000Z</time>
      </trkpt>
      <trkpt lat="48.336791" lon="14.363245">
        <ele>352.462322</ele>
        <time>2024-07-07T09:45:32.000Z</time>
      </trkpt>
      <trkpt lat="48.336796" lon="14.363181">
        <ele>352.439056</ele>
        <time>2024-07-07T09:45:32.000Z</time>
      </trkpt>
      <trkpt lat="48.336769" lon="14.362462">
        <ele>352.105135</ele>
        <time>2024-07-07T09:45:37.000Z</time>
      </trkpt>
      <trkpt lat="48.336764" lon="14.362317">
        <ele>352.039433</ele>
        <time>2024-07-07T09:45:38.000Z</time>
      </trkpt>
      <trkpt lat="48.336757" lon="14.361189">
        <ele>351.5231</ele>
        <time>2024-07-07T09:45:46.000Z</time>
      </trkpt>
      <trkpt lat="48.33674" lon="14.361047">
        <ele>351.450068</ele>
        <time>2024-07-07T09:45:47.000Z</time>
      </trkpt>
      <trkpt lat="48.336719" lon="14.359078">
        <ele>350.457254</ele>
        <time>2024-07-07T09:46:02.000Z</time>
      </trkpt>
      <trkpt lat="48.336713" lon="14.358252">
        <ele>350.27798</ele>
        <time>2024-07-07T09:46:08.000Z</time>
      </trkpt>
      <trkpt lat="48.336686" lon="14.356348">
        <ele>350.768098</ele>
        <time>2024-07-07T09:46:22.000Z</time>
      </trkpt>
      <trkpt lat="48.336661" lon="14.35607">
        <ele>350.841379</ele>
        <time>2024-07-07T09:46:24.000Z</time>
      </trkpt>
      <trkpt lat="48.33662" lon="14.355808">
        <ele>350.920688</ele>
        <time>2024-07-07T09:46:26.000Z</time>
      </trkpt>
      <trkpt lat="48.336468" lon="14.355358">
        <ele>351.118496</ele>
        <time>2024-07-07T09:46:30.000Z</time>
      </trkpt>
      <trkpt lat="48.336151" lon="14.354873">
        <ele>351.380137</ele>
        <time>2024-07-07T09:46:35.000Z</time>
      </trkpt>
      <trkpt lat="48.335956" lon="14.354456">
        <ele>351.581601</ele>
        <time>2024-07-07T09:46:39.000Z</time>
      </trkpt>
      <trkpt lat="48.33585" lon="14.354091">
        <ele>351.738104</ele>
        <time>2024-07-07T09:46:42.000Z</time>
      </trkpt>
      <trkpt lat="48.335804" lon="14.353747">
        <ele>351.875321</ele>
        <time>2024-07-07T09:46:45.000Z</time>
      </trkpt>
      <trkpt lat="48.335795" lon="14.353179">
        <ele>351.5398</ele>
        <time>2024-07-07T09:46:49.000Z</time>
      </trkpt>
      <trkpt lat="48.335811" lon="14.352476">
        <ele>350.735443</ele>
        <time>2024-07-07T09:46:54.000Z</time>
      </trkpt>
      <trkpt lat="48.335811" lon="14.352387">
        <ele>350.627646</ele>
        <time>2024-07-07T09:46:55.000Z</time>
      </trkpt>
      <trkpt lat="48.335838" lon="14.351421">
        <ele>349.505655</ele>
        <time>2024-07-07T09:47:02.000Z</time>
      </trkpt>
      <trkpt lat="48.335841" lon="14.35108">
        <ele>349.096484</ele>
        <time>2024-07-07T09:47:05.000Z</time>
      </trkpt>
      <trkpt lat="48.335854" lon="14.35049">
        <ele>347.798892</ele>
        <time>2024-07-07T09:47:09.000Z</time>
      </trkpt>
      <trkpt lat="48.335915" lon="14.349986">
        <ele>346.238267</ele>
        <time>2024-07-07T09:47:13.000Z</time>
      </trkpt>
      <trkpt lat="48.336751" lon="14.347154">
        <ele>335.512192</ele>
        <time>2024-07-07T09:47:36.000Z</time>
      </trkpt>
      <trkpt lat="48.336851" lon="14.346566">
        <ele>332.965904</ele>
        <time>2024-07-07T09:47:40.000Z</time>
      </trkpt>
      <trkpt lat="48.336906" lon="14.345558">
        <ele>328.740286</ele>
        <time>2024-07-07T09:47:47.000Z</time>
      </trkpt>
      <trkpt lat="48.336965" lon="14.345177">
        <ele>327.052177</ele>
        <time>2024-07-07T09:47:50.000Z</time>
      </trkpt>
      <trkpt lat="48.337078" lon="14.344867">
        <ele>325.505489</ele>
        <time>2024-07-07T09:47:53.000Z</time>
      </trkpt>
      <trkpt lat="48.337234" lon="14.344642">
        <ele>324.080049</ele>
        <time>2024-07-07T09:47:55.000Z</time>
      </trkpt>
      <trkpt lat="48.337719" lon="14.344195">
        <ele>320.376685</ele>
        <time>2024-07-07T09:48:01.000Z</time>
      </trkpt>
      <trkpt lat="48.338398" lon="14.34354">
        <ele>315.864119</ele>
        <time>2024-07-07T09:48:10.000Z</time>
      </trkpt>
      <trkpt lat="48.338423" lon="14.343504">
        <ele>315.66577</ele>
        <time>2024-07-07T09:48:10.000Z</time>
      </trkpt>
      <trkpt lat="48.338463" lon="14.343436">
        <ele>315.463706</ele>
        <time>2024-07-07T09:48:11.000Z</time>
      </trkpt>
      <trkpt lat="48.338558" lon="14.343138">
        <ele>314.46519</ele>
        <time>2024-07-07T09:48:13.000Z</time>
      </trkpt>
      <trkpt lat="48.338556" lon="14.342901">
        <ele>313.739434</ele>
        <time>2024-07-07T09:48:15.000Z</time>
      </trkpt>
      <trkpt lat="48.3385" lon="14.342545">
        <ele>312.611784</ele>
        <time>2024-07-07T09:48:18.000Z</time>
      </trkpt>
      <trkpt lat="48.338533" lon="14.342522">
        <ele>312.40912</ele>
        <time>2024-07-07T09:48:18.000Z</time>
      </trkpt>
      <trkpt lat="48.33843" lon="14.342317">
        <ele>311.631926</ele>
        <time>2024-07-07T09:48:20.000Z</time>
      </trkpt>
      <trkpt lat="48.337635" lon="14.341213">
        <ele>306.488169</ele>
        <time>2024-07-07T09:48:32.000Z</time>
      </trkpt>
      <trkpt lat="48.337496" lon="14.340959">
        <ele>305.466694</ele>
        <time>2024-07-07T09:48:34.000Z</time>
      </trkpt>
      <trkpt lat="48.337449" lon="14.34068">
        <ele>304.521144</ele>
        <time>2024-07-07T09:48:36.000Z</time>
      </trkpt>
      <trkpt lat="48.337411" lon="14.339267">
        <ele>299.870482</ele>
        <time>2024-07-07T09:48:46.000Z</time>
      </trkpt>
      <trkpt lat="48.33738" lon="14.338124">
        <ele>296.202944</ele>
        <time>2024-07-07T09:48:54.000Z</time>
      </trkpt>
      <trkpt lat="48.337245" lon="14.337432">
        <ele>293.870946</ele>
        <time>2024-07-07T09:48:59.000Z</time>
      </trkpt>
      <trkpt lat="48.337096" lon="14.336931">
        <ele>292.039803</ele>
        <time>2024-07-07T09:49:03.000Z</time>
      </trkpt>
      <trkpt lat="48.336935" lon="14.336567">
        <ele>291.229541</ele>
        <time>2024-07-07T09:49:06.000Z</time>
      </trkpt>
      <trkpt lat="48.336539" lon="14.335849">
        <ele>289.622899</ele>
        <time>2024-07-07T09:49:13.000Z</time>
      </trkpt>
      <trkpt lat="48.336422" lon="14.335609">
        <ele>289.105731</ele>
        <time>2024-07-07T09:49:15.000Z</time>
      </trkpt>
      <trkpt lat="48.336285" lon="14.33533">
        <ele>288.51001</ele>
        <time>2024-07-07T09:49:18.000Z</time>
      </trkpt>
      <trkpt lat="48.336258" lon="14.335306">
        <ele>288.410175</ele>
        <time>2024-07-07T09:49:18.000Z</time>
      </trkpt>
      <trkpt lat="48.336135" lon="14.335113">
        <ele>287.978498</ele>
        <time>2024-07-07T09:49:20.000Z</time>
      </trkpt>
      <trkpt lat="48.336093" lon="14.335034">
        <ele>287.806228</ele>
        <time>2024-07-07T09:49:21.000Z</time>
      </trkpt>
      <trkpt lat="48.336077" lon="14.335088">
        <ele>287.701502</ele>
        <time>2024-07-07T09:49:21.000Z</time>
      </trkpt>
      <trkpt lat="48.336" lon="14.334956">
        <ele>287.432441</ele>
        <time>2024-07-07T09:49:22.000Z</time>
      </trkpt>
      <trkpt lat="48.335937" lon="14.334821">
        <ele>287.180074</ele>
        <time>2024-07-07T09:49:23.000Z</time>
      </trkpt>
      <trkpt lat="48.335301" lon="14.333662">
        <ele>286.244617</ele>
        <time>2024-07-07T09:49:34.000Z</time>
      </trkpt>
      <trkpt lat="48.335086" lon="14.33333">
        <ele>285.963512</ele>
        <time>2024-07-07T09:49:37.000Z</time>
      </trkpt>
      <trkpt lat="48.334834" lon="14.333128">
        <ele>285.688253</ele>
        <time>2024-07-07T09:49:40.000Z</time>
      </trkpt>
      <trkpt lat="48.334648" lon="14.333108">
        <ele>285.517717</ele>
        <time>2024-07-07T09:49:42.000Z</time>
      </trkpt>
      <trkpt lat="48.334404" lon="14.333127">
        <ele>285.296368</ele>
        <time>2024-07-07T09:49:45.000Z</time>
      </trkpt>
      <trkpt lat="48.333921" lon="14.333168">
        <ele>284.854074</ele>
        <time>2024-07-07T09:49:50.000Z</time>
      </trkpt>
      <trkpt lat="48.333368" lon="14.3329">
        <ele>284.3213</ele>
        <time>2024-07-07T09:49:56.000Z</time>
      </trkpt>
      <trkpt lat="48.333244" lon="14.332886">
        <ele>284.220062</ele>
        <time>2024-07-07T09:49:57.000Z</time>
      </trkpt>
      <trkpt lat="48.33257" lon="14.332926">
        <ele>282.207588</ele>
        <time>2024-07-07T09:50:05.000Z</time>
      </trkpt>
      <trkpt lat="48.331731" lon="14.332867">
        <ele>277.778116</ele>
        <time>2024-07-07T09:50:14.000Z</time>
      </trkpt>
      <trkpt lat="48.33099" lon="14.332936">
        <ele>273.680021</ele>
        <time>2024-07-07T09:50:22.000Z</time>
      </trkpt>
      <trkpt lat="48.330874" lon="14.332976">
        <ele>273.009331</ele>
        <time>2024-07-07T09:50:23.000Z</time>
      </trkpt>
      <trkpt lat="48.330771" lon="14.333031">
        <ele>272.305001</ele>
        <time>2024-07-07T09:50:24.000Z</time>
      </trkpt>
      <trkpt lat="48.330541" lon="14.333168">
        <ele>270.818466</ele>
        <time>2024-07-07T09:50:27.000Z</time>
      </trkpt>
      <trkpt lat="48.330065" lon="14.333519">
        <ele>267.615625</ele>
        <time>2024-07-07T09:50:33.000Z</time>
      </trkpt>
      <trkpt lat="48.330023" lon="14.333542">
        <ele>267.338527</ele>
        <time>2024-07-07T09:50:33.000Z</time>
      </trkpt>
      <trkpt lat="48.329783" lon="14.333721">
        <ele>265.765703</ele>
        <time>2024-07-07T09:50:36.000Z</time>
      </trkpt>
      <trkpt lat="48.329651" lon="14.333837">
        <ele>264.826346</ele>
        <time>2024-07-07T09:50:38.000Z</time>
      </trkpt>
      <trkpt lat="48.329576" lon="14.333899">
        <ele>264.349451</ele>
        <time>2024-07-07T09:50:39.000Z</time>
      </trkpt>
      <trkpt lat="48.329194" lon="14.334181">
        <ele>262.963041</ele>
        <time>2024-07-07T09:50:44.000Z</time>
      </trkpt>
      <trkpt lat="48.32886" lon="14.334411">
        <ele>262.275616</ele>
        <time>2024-07-07T09:50:48.000Z</time>
      </trkpt>
      <trkpt lat="48.328545" lon="14.33455">
        <ele>261.669948</ele>
        <time>2024-07-07T09:50:52.000Z</time>
      </trkpt>
      <trkpt lat="48.328378" lon="14.334586">
        <ele>261.362159</ele>
        <time>2024-07-07T09:50:54.000Z</time>
      </trkpt>
      <trkpt lat="48.328317" lon="14.334582">
        <ele>261.242977</ele>
        <time>2024-07-07T09:50:55.000Z</time>
      </trkpt>
      <trkpt lat="48.32813" lon="14.334566">
        <ele>260.894257</ele>
        <time>2024-07-07T09:50:57.000Z</time>
      </trkpt>
      <trkpt lat="48.327729" lon="14.3345">
        <ele>260.154883</ele>
        <time>2024-07-07T09:51:01.000Z</time>
      </trkpt>
      <trkpt lat="48.327653" lon="14.334484">
        <ele>260.120711</ele>
        <time>2024-07-07T09:51:02.000Z</time>
      </trkpt>
      <trkpt lat="48.327664" lon="14.334571">
        <ele>260.097118</ele>
        <time>2024-07-07T09:51:03.000Z</time>
      </trkpt>
      <trkpt lat="48.327655" lon="14.334628">
        <ele>260.077421</ele>
        <time>2024-07-07T09:51:03.000Z</time>
      </trkpt>
      <trkpt lat="48.32765" lon="14.334697">
        <ele>260.059495</ele>
        <time>2024-07-07T09:51:04.000Z</time>
      </trkpt>
      <trkpt lat="48.327631" lon="14.334815">
        <ele>260.024885</ele>
        <time>2024-07-07T09:51:05.000Z</time>
      </trkpt>
      <trkpt lat="48.327623" lon="14.33507">
        <ele>259.946703</ele>
        <time>2024-07-07T09:51:07.000Z</time>
      </trkpt>
      <trkpt lat="48.327546" lon="14.335392">
        <ele>259.845157</ele>
        <time>2024-07-07T09:51:10.000Z</time>
      </trkpt>
      <trkpt lat="48.327427" lon="14.335685">
        <ele>259.742208</ele>
        <time>2024-07-07T09:51:13.000Z</time>
      </trkpt>
      <trkpt lat="48.327303" lon="14.335862">
        <ele>259.663414</ele>
        <time>2024-07-07T09:51:15.000Z</time>
      </trkpt>
      <trkpt lat="48.327062" lon="14.336125">
        <ele>259.536773</ele>
        <time>2024-07-07T09:51:18.000Z</time>
      </trkpt>
      <trkpt lat="48.32695" lon="14.336351">
        <ele>259.451013</ele>
        <time>2024-07-07T09:51:20.000Z</time>
      </trkpt>
      <trkpt lat="48.32658" lon="14.337462">
        <ele>259.114687</ele>
        <time>2024-07-07T09:51:29.000Z</time>
      </trkpt>
      <trkpt lat="48.32655" lon="14.33759">
        <ele>259.080354</ele>
        <time>2024-07-07T09:51:30.000Z</time>
      </trkpt>
      <trkpt lat="48.326525" lon="14.337656">
        <ele>259.059352</ele>
        <time>2024-07-07T09:51:31.000Z</time>
      </trkpt>
      <trkpt lat="48.326373" lon="14.337942">
        <ele>258.968922</ele>
        <time>2024-07-07T09:51:34.000Z</time>
      </trkpt>
      <trkpt lat="48.326299" lon="14.338065">
        <ele>258.918925</ele>
        <time>2024-07-07T09:51:35.000Z</time>
      </trkpt>
      <trkpt lat="48.326236" lon="14.338156">
        <ele>258.888947</ele>
        <time>2024-07-07T09:51:36.000Z</time>
      </trkpt>
      <trkpt lat="48.326147" lon="14.338261">
        <ele>258.847546</ele>
        <time>2024-07-07T09:51:37.000Z</time>
      </trkpt>
      <trkpt lat="48.326098" lon="14.338307">
        <ele>258.820852</ele>
        <time>2024-07-07T09:51:38.000Z</time>
      </trkpt>
      <trkpt lat="48.325744" lon="14.338595">
        <ele>258.664234</ele>
        <time>2024-07-07T09:51:42.000Z</time>
      </trkpt>
      <trkpt lat="48.324788" lon="14.339103">
        <ele>258.789653</ele>
        <time>2024-07-07T09:51:53.000Z</time>
      </trkpt>
      <trkpt lat="48.324663" lon="14.339171">
        <ele>258.80884</ele>
        <time>2024-07-07T09:51:54.000Z</time>
      </trkpt>
      <trkpt lat="48.324593" lon="14.339235">
        <ele>258.821218</ele>
        <time>2024-07-07T09:51:55.000Z</time>
      </trkpt>
      <trkpt lat="48.324447" lon="14.339321">
        <ele>258.842771</ele>
        <time>2024-07-07T09:51:57.000Z</time>
      </trkpt>
      <trkpt lat="48.323323" lon="14.340205">
        <ele>260.120308</ele>
        <time>2024-07-07T09:52:11.000Z</time>
      </trkpt>
      <trkpt lat="48.322821" lon="14.340507">
        <ele>260.944546</ele>
        <time>2024-07-07T09:52:17.000Z</time>
      </trkpt>
      <trkpt lat="48.322205" lon="14.340748">
        <ele>261.633001</ele>
        <time>2024-07-07T09:52:24.000Z</time>
      </trkpt>
      <trkpt lat="48.321768" lon="14.340885">
        <ele>261.665597</ele>
        <time>2024-07-07T09:52:29.000Z</time>
      </trkpt>
      <trkpt lat="48.321694" lon="14.340893">
        <ele>261.671898</ele>
        <time>2024-07-07T09:52:30.000Z</time>
      </trkpt>
      <trkpt lat="48.321446" lon="14.340958">
        <ele>261.689828</ele>
        <time>2024-07-07T09:52:33.000Z</time>
      </trkpt>
      <trkpt lat="48.321122" lon="14.340912">
        <ele>261.713866</ele>
        <time>2024-07-07T09:52:37.000Z</time>
      </trkpt>
      <trkpt lat="48.320893" lon="14.340741">
        <ele>261.731844</ele>
        <time>2024-07-07T09:52:40.000Z</time>
      </trkpt>
      <trkpt lat="48.320621" lon="14.340459">
        <ele>261.524344</ele>
        <time>2024-07-07T09:52:44.000Z</time>
      </trkpt>
      <trkpt lat="48.320282" lon="14.340103">
        <ele>260.460871</ele>
        <time>2024-07-07T09:52:49.000Z</time>
      </trkpt>
      <trkpt lat="48.320012" lon="14.339821">
        <ele>259.594899</ele>
        <time>2024-07-07T09:52:53.000Z</time>
      </trkpt>
      <trkpt lat="48.31978" lon="14.339591">
        <ele>258.868888</ele>
        <time>2024-07-07T09:52:56.000Z</time>
      </trkpt>
      <trkpt lat="48.319691" lon="14.33951">
        <ele>258.598456</ele>
        <time>2024-07-07T09:52:57.000Z</time>
      </trkpt>
      <trkpt lat="48.319532" lon="14.339418">
        <ele>258.163816</ele>
        <time>2024-07-07T09:52:59.000Z</time>
      </trkpt>
      <trkpt lat="48.319438" lon="14.339368">
        <ele>257.923917</ele>
        <time>2024-07-07T09:53:00.000Z</time>
      </trkpt>
      <trkpt lat="48.319226" lon="14.339242">
        <ele>257.321711</ele>
        <time>2024-07-07T09:53:03.000Z</time>
      </trkpt>
      <trkpt lat="48.319168" lon="14.339202">
        <ele>257.143553</ele>
        <time>2024-07-07T09:53:04.000Z</time>
      </trkpt>
      <trkpt lat="48.31912" lon="14.339175">
        <ele>257.052785</ele>
        <time>2024-07-07T09:53:05.000Z</time>
      </trkpt>
      <trkpt lat="48.319083" lon="14.339153">
        <ele>257.080777</ele>
        <time>2024-07-07T09:53:05.000Z</time>
      </trkpt>
      <trkpt lat="48.318878" lon="14.339044">
        <ele>257.190566</ele>
        <time>2024-07-07T09:53:07.000Z</time>
      </trkpt>
      <trkpt lat="48.318644" lon="14.338908">
        <ele>257.326945</ele>
        <time>2024-07-07T09:53:10.000Z</time>
      </trkpt>
      <trkpt lat="48.31828" lon="14.338714">
        <ele>257.533909</ele>
        <time>2024-07-07T09:53:14.000Z</time>
      </trkpt>
      <trkpt lat="48.317456" lon="14.338252">
        <ele>258.011265</ele>
        <time>2024-07-07T09:53:24.000Z</time>
      </trkpt>
      <trkpt lat="48.31722" lon="14.338106">
        <ele>258.742226</ele>
        <time>2024-07-07T09:53:27.000Z</time>
      </trkpt>
      <trkpt lat="48.316344" lon="14.337596">
        <ele>261.420291</ele>
        <time>2024-07-07T09:53:37.000Z</time>
      </trkpt>
      <trkpt lat="48.315926" lon="14.337321">
        <ele>262.708531</ele>
        <time>2024-07-07T09:53:42.000Z</time>
      </trkpt>
      <trkpt lat="48.315663" lon="14.337098">
        <ele>263.096036</ele>
        <time>2024-07-07T09:53:45.000Z</time>
      </trkpt>
      <trkpt lat="48.315594" lon="14.337031">
        <ele>263.060355</ele>
        <time>2024-07-07T09:53:46.000Z</time>
      </trkpt>
      <trkpt lat="48.315306" lon="14.33677">
        <ele>262.933409</ele>
        <time>2024-07-07T09:53:50.000Z</time>
      </trkpt>
      <trkpt lat="48.315263" lon="14.336719">
        <ele>262.913895</ele>
        <time>2024-07-07T09:53:51.000Z</time>
      </trkpt>
      <trkpt lat="48.314891" lon="14.336276">
        <ele>262.728817</ele>
        <time>2024-07-07T09:53:56.000Z</time>
      </trkpt>
      <trkpt lat="48.314489" lon="14.335816">
        <ele>262.536498</ele>
        <time>2024-07-07T09:54:02.000Z</time>
      </trkpt>
      <trkpt lat="48.314259" lon="14.335578">
        <ele>262.222299</ele>
        <time>2024-07-07T09:54:05.000Z</time>
      </trkpt>
      <trkpt lat="48.313891" lon="14.335308">
        <ele>261.092469</ele>
        <time>2024-07-07T09:54:10.000Z</time>
      </trkpt>
      <trkpt lat="48.313629" lon="14.335183">
        <ele>260.351294</ele>
        <time>2024-07-07T09:54:13.000Z</time>
      </trkpt>
      <trkpt lat="48.313345" lon="14.335102">
        <ele>259.545678</ele>
        <time>2024-07-07T09:54:16.000Z</time>
      </trkpt>
      <trkpt lat="48.313106" lon="14.335047">
        <ele>258.844558</ele>
        <time>2024-07-07T09:54:19.000Z</time>
      </trkpt>
      <trkpt lat="48.312741" lon="14.335048">
        <ele>257.85172</ele>
        <time>2024-07-07T09:54:23.000Z</time>
      </trkpt>
      <trkpt lat="48.312684" lon="14.335056">
        <ele>257.684608</ele>
        <time>2024-07-07T09:54:24.000Z</time>
      </trkpt>
      <trkpt lat="48.312283" lon="14.335135">
        <ele>257.410356</ele>
        <time>2024-07-07T09:54:28.000Z</time>
      </trkpt>
      <trkpt lat="48.311756" lon="14.335424">
        <ele>257.330412</ele>
        <time>2024-07-07T09:54:34.000Z</time>
      </trkpt>
      <trkpt lat="48.311025" lon="14.335861">
        <ele>257.219174</ele>
        <time>2024-07-07T09:54:43.000Z</time>
      </trkpt>
      <trkpt lat="48.310634" lon="14.336049">
        <ele>257.170319</ele>
        <time>2024-07-07T09:54:48.000Z</time>
      </trkpt>
      <trkpt lat="48.310102" lon="14.3362">
        <ele>257.11252</ele>
        <time>2024-07-07T09:54:54.000Z</time>
      </trkpt>
      <trkpt lat="48.309438" lon="14.336352">
        <ele>257.038467</ele>
        <time>2024-07-07T09:55:01.000Z</time>
      </trkpt>
      <trkpt lat="48.308973" lon="14.33643">
        <ele>256.662476</ele>
        <time>2024-07-07T09:55:06.000Z</time>
      </trkpt>
      <trkpt lat="48.308935" lon="14.336312">
        <ele>256.448185</ele>
        <time>2024-07-07T09:55:07.000Z</time>
      </trkpt>
      <trkpt lat="48.30882" lon="14.336209">
        <ele>256.165607</ele>
        <time>2024-07-07T09:55:08.000Z</time>
      </trkpt>
      <trkpt lat="48.308717" lon="14.336129">
        <ele>255.921835</ele>
        <time>2024-07-07T09:55:09.000Z</time>
      </trkpt>
      <trkpt lat="48.308632" lon="14.336137">
        <ele>255.744945</ele>
        <time>2024-07-07T09:55:10.000Z</time>
      </trkpt>
      <trkpt lat="48.308597" lon="14.335784">
        <ele>255.218798</ele>
        <time>2024-07-07T09:55:13.000Z</time>
      </trkpt>
      <trkpt lat="48.308666" lon="14.33573">
        <ele>255.018055</ele>
        <time>2024-07-07T09:55:14.000Z</time>
      </trkpt>
      <trkpt lat="48.308693" lon="14.335736">
        <ele>254.977144</ele>
        <time>2024-07-07T09:55:14.000Z</time>
      </trkpt>
      <trkpt lat="48.308767" lon="14.335682">
        <ele>254.798161</ele>
        <time>2024-07-07T09:55:15.000Z</time>
      </trkpt>
      <trkpt lat="48.308748" lon="14.335601">
        <ele>254.663979</ele>
        <time>2024-07-07T09:55:16.000Z</time>
      </trkpt>
      <trkpt lat="48.308851" lon="14.335531">
        <ele>254.404383</ele>
        <time>2024-07-07T09:55:17.000Z</time>
      </trkpt>
      <trkpt lat="48.309975" lon="14.335109">
        <ele>252.779805</ele>
        <time>2024-07-07T09:55:30.000Z</time>
      </trkpt>
      <trkpt lat="48.31082" lon="14.334763">
        <ele>252.379314</ele>
        <time>2024-07-07T09:55:40.000Z</time>
      </trkpt>
      <trkpt lat="48.311746" lon="14.33436">
        <ele>252.534379</ele>
        <time>2024-07-07T09:55:51.000Z</time>
      </trkpt>
      <trkpt lat="48.31348" lon="14.333479">
        <ele>253.411817</ele>
        <time>2024-07-07T09:56:11.000Z</time>
      </trkpt>
      <trkpt lat="48.314159" lon="14.333065">
        <ele>253.628817</ele>
        <time>2024-07-07T09:56:19.000Z</time>
      </trkpt>
      <trkpt lat="48.316622" lon="14.331085">
        <ele>253.239901</ele>
        <time>2024-07-07T09:56:50.000Z</time>
      </trkpt>
      <trkpt lat="48.316693" lon="14.330945">
        <ele>253.200051</ele>
        <time>2024-07-07T09:56:51.000Z</time>
      </trkpt>
      <trkpt lat="48.316927" lon="14.330653">
        <ele>253.107288</ele>
        <time>2024-07-07T09:56:54.000Z</time>
      </trkpt>
      <trkpt lat="48.318604" lon="14.329318">
        <ele>252.801849632</ele>
        <time>2024-07-07T09:57:15.000Z</time>
      </trkpt>
      <trkpt lat="48.319" lon="14.329016">
        <ele>252.730377137</ele>
        <time>2024-07-07T09:57:20.000Z</time>
      </trkpt>
      <trkpt lat="48.319119" lon="14.328908">
        <ele>252.708003614</ele>
        <time>2024-07-07T09:57:22.000Z</time>
      </trkpt>
      <trkpt lat="48.319132" lon="14.328913">
        <ele>252.705843649</ele>
        <time>2024-07-07T09:57:22.000Z</time>
      </trkpt>
    </trkseg>
  </trk>
</gpx>

<!--
Performance optimized by W3 Total Cache. Learn more: https://www.boldgrid.com/w3-total-cache/?utm_source=w3tc&utm_medium=footer_comment&utm_campaign=free_plugin

Page Caching using Disk: Enhanced{w3tc_pagecache_reject_reason} 

Served from: www.aquabike.world @ 2026-05-08 02:07:49 by W3 Total Cache
-->